Time;durP1;ratioP1;P1;durP2;ratioP2;P2;SDS_P1;SDS_P2;PMS_P1;PMS_P2;Temp;Humidity;BMP_temperature;BMP_pressure;BME280_temperature;BME280_humidity;BME280_pressure;Samples;Min_cycle;Max_cycle;Signal;HPM_P1;HPM_P2
2022/04/07 00:02:27;;;;;;;2.05;0.70;;;;;;;24.39;30.92;99919.13;4897404;29;20497;-44
2022/04/07 00:04:55;;;;;;;5.03;1.38;;;;;;;24.38;30.70;99913.00;4930595;29;20043;-46
2022/04/07 00:07:23;;;;;;;4.68;1.13;;;;;;;24.35;31.14;99902.53;4927010;29;20631;-45
2022/04/07 00:09:51;;;;;;;3.17;1.00;;;;;;;24.17;30.78;99882.53;4929694;29;20043;-45
2022/04/07 00:12:18;;;;;;;3.08;1.05;;;;;;;24.34;30.75;99910.41;4896767;29;20039;-43
2022/04/07 00:14:47;;;;;;;5.35;1.60;;;;;;;24.32;31.35;99918.28;4929011;29;20062;-44
2022/04/07 00:17:15;;;;;;;4.28;1.42;;;;;;;24.29;30.99;99905.19;4929138;29;20118;-45
2022/04/07 00:19:44;;;;;;;4.32;1.40;;;;;;;24.33;31.42;99908.66;4928533;29;20035;-45
2022/04/07 00:22:12;;;;;;;6.78;2.17;;;;;;;24.29;30.92;99902.59;4928321;29;20035;-44
2022/04/07 00:24:41;;;;;;;5.05;1.67;;;;;;;24.28;31.43;99891.22;4930654;29;20234;-44
2022/04/07 00:27:09;;;;;;;7.22;2.08;;;;;;;24.29;31.05;99907.81;4929157;29;20032;-44
2022/04/07 00:29:37;;;;;;;7.30;1.90;;;;;;;24.28;31.00;99908.69;4929163;29;20060;-44
2022/04/07 00:32:06;;;;;;;6.35;2.35;;;;;;;24.25;31.28;99906.09;4929052;29;20150;-43
2022/04/07 00:34:35;;;;;;;6.75;2.28;;;;;;;24.30;31.08;99913.91;4928179;29;20087;-44
2022/04/07 00:37:03;;;;;;;6.28;1.83;;;;;;;24.30;30.90;99909.56;4928192;29;20046;-49
2022/04/07 00:39:31;;;;;;;6.35;2.28;;;;;;;24.30;31.21;99916.53;4927961;29;20064;-48
2022/04/07 00:41:59;;;;;;;7.85;2.33;;;;;;;24.30;31.25;99913.91;4929093;29;20481;-45
2022/04/07 00:44:28;;;;;;;6.72;2.70;;;;;;;24.28;31.19;99906.09;4929100;29;20044;-44
2022/04/07 00:46:55;;;;;;;8.68;2.63;;;;;;;24.27;31.11;99902.56;4929711;29;20494;-50
2022/04/07 00:49:24;;;;;;;7.10;2.28;;;;;;;24.24;31.31;99886.84;4927128;29;20055;-46
2022/04/07 00:51:53;;;;;;;8.57;2.85;;;;;;;24.19;31.37;99887.75;4929245;29;20076;-47
2022/04/07 00:54:21;;;;;;;10.05;2.60;;;;;;;24.19;31.24;99878.16;4927112;29;20096;-45
2022/04/07 00:56:50;;;;;;;6.35;2.20;;;;;;;24.18;31.48;99880.78;4929589;29;20043;-46
2022/04/07 00:59:18;;;;;;;9.27;2.58;;;;;;;24.19;31.22;99869.41;4930009;29;20143;-47
2022/04/07 01:01:48;;;;;;;8.45;3.58;;;;;;;24.20;31.28;99860.69;4929094;29;20035;-48
2022/04/07 01:04:16;;;;;;;7.90;2.40;;;;;;;24.28;31.22;99858.91;4928948;29;20091;-45
2022/04/07 01:06:44;;;;;;;9.77;3.10;;;;;;;24.20;31.44;99858.06;4928159;29;20059;-46
2022/04/07 01:09:12;;;;;;;10.20;2.95;;;;;;;24.16;31.09;99840.63;4928295;29;20036;-45
2022/04/07 01:11:40;;;;;;;8.68;2.97;;;;;;;24.14;31.39;99847.63;4910616;29;20036;-50
2022/04/07 01:14:08;;;;;;;8.05;2.38;;;;;;;24.18;31.34;99838.84;4910396;29;20050;-45
2022/04/07 01:16:36;;;;;;;9.27;2.90;;;;;;;24.17;31.35;99838.00;4928936;29;20045;-46
2022/04/07 01:19:05;;;;;;;7.57;2.75;;;;;;;24.17;31.49;99819.66;4929778;29;20035;-43
2022/04/07 01:21:33;;;;;;;10.35;3.30;;;;;;;24.15;31.47;99810.94;4930942;29;20040;-45
2022/04/07 01:24:13;;;;;;;8.77;2.70;;;;;;;24.19;31.09;99806.53;4928235;29;20044;-46
2022/04/07 01:26:42;;;;;;;9.18;2.78;;;;;;;24.26;31.33;99808.25;4929096;29;20036;-44
2022/04/07 01:29:11;;;;;;;7.38;2.78;;;;;;;24.20;30.98;99803.91;4928492;29;20027;-44
2022/04/07 01:31:40;;;;;;;8.63;2.72;;;;;;;24.20;31.44;99793.44;4933303;29;20130;-45
2022/04/07 01:34:12;;;;;;;8.73;2.78;;;;;;;24.14;31.29;99779.50;4933287;29;21538;-44
2022/04/07 01:36:42;;;;;;;10.23;3.58;;;;;;;24.19;31.24;99775.09;4932977;29;20047;-44
2022/04/07 01:39:11;;;;;;;11.98;4.05;;;;;;;24.19;31.23;99769.84;4932088;29;20027;-48
2022/04/07 01:41:41;;;;;;;11.10;2.95;;;;;;;24.22;31.34;99769.81;4932834;29;20036;-45
2022/04/07 01:44:11;;;;;;;11.50;3.65;;;;;;;24.20;30.97;99756.75;4931939;29;20047;-45
2022/04/07 01:46:40;;;;;;;14.25;3.53;;;;;;;24.15;31.56;99745.41;4933347;29;20028;-48
2022/04/07 01:49:09;;;;;;;8.98;3.20;;;;;;;24.12;31.42;99740.19;4932032;29;20057;-45
2022/04/07 01:51:38;;;;;;;7.80;2.95;;;;;;;24.13;31.29;99736.69;4931767;29;20039;-45
2022/04/07 01:54:11;;;;;;;10.40;3.47;;;;;;;24.16;31.03;99725.34;4933235;29;20090;-46
2022/04/07 01:56:41;;;;;;;10.85;3.63;;;;;;;24.11;31.63;99718.38;4931656;29;20098;-45
2022/04/07 01:59:10;;;;;;;13.00;4.07;;;;;;;24.09;31.33;99714.00;4931995;29;20039;-45
2022/04/07 02:01:38;;;;;;;13.70;4.50;;;;;;;24.14;31.62;99701.75;4931899;29;20035;-46
2022/04/07 02:04:06;;;;;;;10.25;3.50;;;;;;;24.15;31.25;99695.63;4932029;29;20043;-45
2022/04/07 02:06:34;;;;;;;11.55;3.60;;;;;;;24.10;31.66;99700.03;4931292;29;20047;-44
2022/04/07 02:09:02;;;;;;;14.65;4.47;;;;;;;24.09;31.75;99682.56;4931409;29;20381;-45
2022/04/07 02:11:32;;;;;;;12.75;4.00;;;;;;;24.07;31.38;99674.75;4931957;29;20152;-44
2022/04/07 02:14:00;;;;;;;10.02;3.95;;;;;;;24.08;31.39;99665.13;4931652;29;20614;-44
2022/04/07 02:16:30;;;;;;;13.10;4.13;;;;;;;24.06;31.57;99670.38;4932720;29;20510;-44
2022/04/07 02:18:57;;;;;;;14.77;4.60;;;;;;;24.02;31.58;99666.03;4931211;29;20111;-49
2022/04/07 02:21:25;;;;;;;11.30;3.72;;;;;;;23.97;31.99;99660.84;4931338;29;20040;-49
2022/04/07 02:23:52;;;;;;;11.60;3.95;;;;;;;24.06;31.62;99648.56;4931184;29;20086;-45
2022/04/07 02:26:19;;;;;;;11.75;3.70;;;;;;;24.02;31.75;99652.94;4932063;29;20035;-44
2022/04/07 02:28:46;;;;;;;12.85;4.07;;;;;;;24.05;31.81;99652.06;4930863;29;20039;-45
2022/04/07 02:31:15;;;;;;;10.80;3.60;;;;;;;24.02;31.77;99639.84;4930982;29;20553;-47
2022/04/07 02:33:42;;;;;;;12.70;3.88;;;;;;;23.98;31.63;99625.06;4931812;29;20470;-44
2022/04/07 02:36:11;;;;;;;11.55;3.80;;;;;;;24.01;32.07;99635.47;4931985;29;20044;-47
2022/04/07 02:38:39;;;;;;;11.25;4.07;;;;;;;24.03;31.76;99623.25;4930544;29;20042;-44
2022/04/07 02:41:07;;;;;;;10.25;4.18;;;;;;;24.02;31.71;99621.50;4931652;28;20379;-45
2022/04/07 02:43:36;;;;;;;11.52;4.10;;;;;;;23.96;31.97;99609.34;4930733;29;20040;-44
2022/04/07 02:46:04;;;;;;;12.73;4.75;;;;;;;24.05;32.00;99611.00;4931035;29;20050;-46
2022/04/07 02:48:31;;;;;;;8.88;3.47;;;;;;;24.06;31.80;99602.28;4930889;29;20494;-44
2022/04/07 02:51:01;;;;;;;13.10;4.47;;;;;;;24.02;31.69;99600.53;4931444;29;20042;-45
2022/04/07 02:53:29;;;;;;;11.55;3.92;;;;;;;24.07;31.58;99600.53;4931402;29;20124;-46
2022/04/07 02:55:57;;;;;;;13.10;4.10;;;;;;;24.01;31.75;99595.34;4931658;29;20035;-45
2022/04/07 02:58:26;;;;;;;10.20;3.53;;;;;;;23.94;32.00;99600.59;4929813;29;20050;-51
2022/04/07 03:00:54;;;;;;;12.40;4.93;;;;;;;23.98;31.83;99593.63;4913221;29;20054;-46
2022/04/07 03:03:21;;;;;;;10.90;3.83;;;;;;;23.98;31.81;99598.88;4931034;29;20040;-46
2022/04/07 03:05:49;;;;;;;8.75;3.58;;;;;;;24.00;32.29;99588.34;4930804;29;20050;-46
2022/04/07 03:08:17;;;;;;;9.27;3.42;;;;;;;24.00;32.23;99594.44;4929432;29;20631;-45
2022/04/07 03:10:45;;;;;;;11.85;3.53;;;;;;;24.04;31.68;99588.31;4929658;29;20098;-46
2022/04/07 03:13:13;;;;;;;12.65;3.90;;;;;;;24.02;31.61;99579.59;4930633;29;20031;-45
2022/04/07 03:15:41;;;;;;;10.63;3.65;;;;;;;23.92;32.06;99557.81;4930726;29;20437;-44
2022/04/07 03:18:09;;;;;;;8.13;3.17;;;;;;;23.97;31.97;99571.78;4930338;29;20480;-47
2022/04/07 03:20:36;;;;;;;8.88;3.35;;;;;;;23.94;32.04;99574.38;4930581;29;20035;-48
2022/04/07 03:23:04;;;;;;;7.97;3.42;;;;;;;23.94;32.39;99571.78;4930998;29;20061;-45
2022/04/07 03:25:32;;;;;;;8.73;3.63;;;;;;;23.97;32.34;99565.69;4930084;29;20457;-48
2022/04/07 03:28:01;;;;;;;9.90;3.78;;;;;;;23.95;32.26;99544.69;4929576;29;20032;-45
2022/04/07 03:30:28;;;;;;;11.80;3.45;;;;;;;23.97;32.42;99569.16;4929886;29;20884;-48
2022/04/07 03:32:57;;;;;;;10.23;3.80;;;;;;;23.94;32.39;99537.72;4930987;29;20576;-49
2022/04/07 03:35:24;;;;;;;11.50;4.20;;;;;;;24.00;31.90;99559.53;4929311;29;20046;-48
2022/04/07 03:37:53;;;;;;;9.73;3.75;;;;;;;23.97;32.41;99539.50;4928944;29;20062;-46
2022/04/07 03:40:20;;;;;;;10.82;3.42;;;;;;;23.92;32.40;99542.09;4930681;29;20035;-49
2022/04/07 03:42:48;;;;;;;8.27;3.65;;;;;;;23.93;32.08;99533.38;4930357;29;20067;-46
2022/04/07 03:45:15;;;;;;;9.63;3.55;;;;;;;23.90;32.43;99545.63;4929590;29;20514;-46
2022/04/07 03:47:44;;;;;;;10.43;3.90;;;;;;;23.93;32.56;99543.00;4930413;29;20039;-46
2022/04/07 03:50:12;;;;;;;8.32;3.30;;;;;;;23.90;32.38;99548.25;4931085;29;20051;-45
2022/04/07 03:52:40;;;;;;;10.77;4.15;;;;;;;23.88;32.34;99524.72;4929473;29;20556;-45
2022/04/07 03:55:09;;;;;;;8.07;3.53;;;;;;;23.91;32.68;99531.66;4929266;29;20032;-49
2022/04/07 03:57:37;;;;;;;7.78;3.25;;;;;;;23.81;32.61;99523.91;4929260;29;20113;-44
2022/04/07 04:00:06;;;;;;;7.18;2.78;;;;;;;23.85;32.40;99529.09;4929834;29;20031;-48
2022/04/07 04:02:33;;;;;;;9.77;4.07;;;;;;;23.88;32.31;99536.91;4929544;29;20032;-51
2022/04/07 04:05:01;;;;;;;9.85;3.50;;;;;;;23.91;32.74;99532.50;4930319;29;20485;-44
2022/04/07 04:07:29;;;;;;;8.30;3.35;;;;;;;23.87;32.79;99520.34;4929485;29;20036;-43
2022/04/07 04:09:56;;;;;;;10.02;3.17;;;;;;;23.87;32.58;99522.97;4929120;29;20993;-45
2022/04/07 04:12:25;;;;;;;7.43;3.35;;;;;;;23.86;32.50;99521.22;4929709;29;20028;-46
2022/04/07 04:14:53;;;;;;;9.32;3.10;;;;;;;23.87;32.77;99512.50;4928973;29;20433;-45
2022/04/07 04:17:21;;;;;;;6.38;2.45;;;;;;;23.86;32.58;99523.84;4929218;29;20063;-45
2022/04/07 04:19:50;;;;;;;7.45;2.67;;;;;;;23.87;32.60;99522.97;4910840;29;20039;-48
2022/04/07 04:22:18;;;;;;;8.57;2.65;;;;;;;23.86;32.69;99518.59;4930060;29;20035;-46
2022/04/07 04:24:46;;;;;;;8.75;2.90;;;;;;;23.84;32.54;99530.84;4930984;29;20062;-47
2022/04/07 04:27:14;;;;;;;6.10;2.90;;;;;;;23.68;32.76;99485.59;4926768;29;20063;-45
2022/04/07 04:29:43;;;;;;;7.07;2.83;;;;;;;23.85;32.95;99513.38;4926815;29;21296;-47
2022/04/07 04:32:11;;;;;;;7.32;3.00;;;;;;;23.74;32.80;99492.53;4913774;29;20043;-46
2022/04/07 04:34:39;;;;;;;6.93;2.47;;;;;;;23.75;32.72;99495.13;4913861;29;20041;-49
2022/04/07 04:37:08;;;;;;;6.85;2.67;;;;;;;23.82;32.94;99516.91;4913783;29;20028;-44
2022/04/07 04:39:36;;;;;;;6.93;2.60;;;;;;;23.79;33.11;99517.81;4914214;29;20028;-45
2022/04/07 04:42:04;;;;;;;8.32;2.83;;;;;;;23.83;33.04;99513.41;4913509;29;20032;-45
2022/04/07 04:44:32;;;;;;;8.02;2.85;;;;;;;23.80;33.08;99513.41;4912607;29;20057;-44
2022/04/07 04:47:00;;;;;;;8.07;3.25;;;;;;;23.78;32.79;99516.06;4912942;29;20043;-44
2022/04/07 04:49:28;;;;;;;6.25;2.55;;;;;;;23.81;33.09;99516.03;4912109;29;20095;-45
2022/04/07 04:51:57;;;;;;;7.85;2.65;;;;;;;23.80;33.28;99519.53;4914530;29;20067;-44
2022/04/07 04:54:24;;;;;;;5.95;2.35;;;;;;;23.78;33.47;99538.75;4913695;29;20043;-49
2022/04/07 04:56:52;;;;;;;6.15;2.67;;;;;;;23.77;33.42;99535.28;4913565;29;20126;-45
2022/04/07 04:59:21;;;;;;;6.97;2.55;;;;;;;23.74;33.46;99532.69;4914248;29;20035;-50
2022/04/07 05:01:49;;;;;;;7.25;2.53;;;;;;;23.85;32.92;99544.78;4913288;29;20254;-46
2022/04/07 05:04:17;;;;;;;6.68;2.25;;;;;;;23.80;33.15;99548.34;4913832;29;20116;-45
2022/04/07 05:06:46;;;;;;;6.22;2.30;;;;;;;23.81;32.99;99536.09;4917479;29;20035;-47
2022/04/07 05:09:13;;;;;;;4.53;2.17;;;;;;;23.83;33.18;99543.06;4917394;29;20088;-45
2022/04/07 05:11:42;;;;;;;7.22;2.35;;;;;;;23.83;33.15;99542.19;4917720;29;20143;-47
2022/04/07 05:14:10;;;;;;;6.60;2.20;;;;;;;23.80;33.13;99535.25;4917007;29;20510;-45
2022/04/07 05:16:39;;;;;;;5.25;2.45;;;;;;;23.83;32.98;99536.97;4917357;29;20035;-50
2022/04/07 05:19:07;;;;;;;6.72;2.40;;;;;;;23.85;33.04;99555.28;4916937;29;20032;-44
2022/04/07 05:21:35;;;;;;;6.43;2.03;;;;;;;23.79;33.30;99551.84;4899720;29;20036;-51
2022/04/07 05:24:03;;;;;;;5.13;1.90;;;;;;;23.76;33.26;99548.34;4917641;29;20040;-46
2022/04/07 05:26:31;;;;;;;5.32;2.28;;;;;;;23.76;33.21;99548.34;4916593;29;20147;-51
2022/04/07 05:28:59;;;;;;;4.38;1.80;;;;;;;23.75;33.15;99549.25;4898887;29;20036;-45
2022/04/07 05:31:27;;;;;;;5.60;2.50;;;;;;;23.77;33.08;99550.97;4900177;29;20112;-44
2022/04/07 05:33:54;;;;;;;4.63;1.65;;;;;;;23.74;33.32;99552.78;4917679;29;20032;-43
2022/04/07 05:36:21;;;;;;;6.65;2.45;;;;;;;23.75;33.38;99536.16;4916897;29;20047;-44
2022/04/07 05:38:48;;;;;;;4.72;1.58;;;;;;;23.71;33.05;99551.03;4916444;29;20473;-44
2022/04/07 05:41:16;;;;;;;6.00;2.60;;;;;;;23.74;33.01;99558.84;4917149;29;20107;-45
2022/04/07 05:43:44;;;;;;;6.40;2.35;;;;;;;23.73;32.96;99562.34;4917198;29;20035;-45
2022/04/07 05:46:12;;;;;;;5.47;2.30;;;;;;;23.73;32.95;99556.25;4916969;29;20067;-47
2022/04/07 05:48:39;;;;;;;7.00;2.05;;;;;;;23.78;33.22;99552.72;4916193;29;20134;-44
2022/04/07 05:51:07;;;;;;;5.70;2.10;;;;;;;23.76;32.95;99554.47;4900426;29;20387;-44
2022/04/07 05:53:35;;;;;;;6.45;2.65;;;;;;;23.80;33.18;99568.41;4917659;29;20044;-45
2022/04/07 05:56:04;;;;;;;5.63;2.75;;;;;;;23.78;32.97;99565.81;4917012;29;20051;-45
2022/04/07 05:58:32;;;;;;;5.25;2.42;;;;;;;23.80;33.23;99564.06;4914748;29;20070;-45
2022/04/07 06:01:00;;;;;;;7.80;2.40;;;;;;;23.78;32.79;99564.94;4900235;29;20704;-43
2022/04/07 06:03:28;;;;;;;8.02;2.65;;;;;;;23.78;33.35;99568.44;4917813;29;20036;-43
2022/04/07 06:05:56;;;;;;;4.57;2.30;;;;;;;23.81;33.36;99570.16;4916814;29;20091;-45
2022/04/07 06:08:25;;;;;;;6.40;2.38;;;;;;;23.78;32.84;99559.69;4915493;29;20522;-44
2022/04/07 06:10:52;;;;;;;5.22;2.13;;;;;;;23.76;33.30;99566.69;4916523;29;20039;-45
2022/04/07 06:13:20;;;;;;;8.82;2.85;;;;;;;23.79;33.09;99572.78;4915382;29;20044;-46
2022/04/07 06:15:48;;;;;;;7.07;2.63;;;;;;;23.80;33.19;99579.78;4916800;29;20071;-53
2022/04/07 06:18:16;;;;;;;8.23;2.67;;;;;;;23.86;33.14;99575.34;4913798;29;20035;-45
2022/04/07 06:20:46;;;;;;;9.35;2.70;;;;;;;23.80;32.81;99576.25;4916743;29;20383;-44
2022/04/07 06:23:14;;;;;;;8.27;3.08;;;;;;;23.77;33.01;99574.56;4917307;29;20035;-46
2022/04/07 06:25:42;;;;;;;8.18;2.88;;;;;;;23.81;32.99;99576.28;4916225;29;20098;-47
2022/04/07 06:28:10;;;;;;;9.10;2.83;;;;;;;23.82;33.02;99582.38;4915441;29;20491;-49
2022/04/07 06:30:38;;;;;;;10.88;3.20;;;;;;;23.76;33.11;99583.28;4927024;29;20114;-45
2022/04/07 06:33:06;;;;;;;7.18;2.88;;;;;;;23.80;33.53;99587.63;4935865;29;20039;-45
2022/04/07 06:35:34;;;;;;;9.07;2.88;;;;;;;23.63;33.09;99545.00;4935202;29;20453;-44
2022/04/07 06:38:02;;;;;;;7.18;2.83;;;;;;;23.75;33.23;99576.31;4934605;29;20043;-45
2022/04/07 06:40:30;;;;;;;10.27;2.40;;;;;;;23.77;33.19;99590.25;4935029;29;20059;-45
2022/04/07 06:43:01;;;;;;;7.78;3.05;;;;;;;23.73;33.25;99580.69;4935555;29;20110;-46
2022/04/07 06:45:29;;;;;;;11.07;3.13;;;;;;;23.74;33.39;99584.19;4934463;29;20059;-47
2022/04/07 06:47:59;;;;;;;6.40;2.65;;;;;;;23.74;33.30;99579.81;4933577;29;20059;-48
2022/04/07 06:50:27;;;;;;;10.10;3.95;;;;;;;23.69;33.71;99581.59;4934758;29;20043;-44
2022/04/07 06:52:56;;;;;;;12.63;5.03;;;;;;;23.76;33.62;99590.25;4933922;29;20047;-45
2022/04/07 06:55:25;;;;;;;12.50;5.22;;;;;;;23.75;33.53;99585.91;4935638;29;20190;-45
2022/04/07 06:57:55;;;;;;;13.27;5.68;;;;;;;23.77;33.53;99578.91;4933843;29;20127;-45
2022/04/07 07:00:28;;;;;;;16.33;6.85;;;;;;;23.79;33.60;99588.50;4935044;29;20043;-45
2022/04/07 07:02:56;;;;;;;13.77;5.88;;;;;;;23.77;33.32;99589.38;4934363;29;20035;-44
2022/04/07 07:05:26;;;;;;;12.10;5.25;;;;;;;23.75;33.47;99584.16;4935142;29;20039;-44
2022/04/07 07:07:54;;;;;;;15.02;6.38;;;;;;;23.78;33.87;99607.72;4934177;29;20090;-44
2022/04/07 07:10:23;;;;;;;14.18;6.15;;;;;;;23.76;33.47;99599.00;4933440;29;20094;-44
2022/04/07 07:12:52;;;;;;;13.82;6.30;;;;;;;23.72;33.55;99599.88;4934307;29;20098;-43
2022/04/07 07:15:23;;;;;;;16.85;5.88;;;;;;;23.73;33.41;99585.91;4934250;29;20034;-45
2022/04/07 07:17:52;;;;;;;12.05;5.60;;;;;;;23.79;33.60;99609.44;4934673;29;20031;-44
2022/04/07 07:20:21;;;;;;;11.48;5.45;;;;;;;23.76;33.42;99606.84;4935054;29;20489;-44
2022/04/07 07:22:48;;;;;;;14.05;5.95;;;;;;;23.80;33.46;99603.34;4934583;29;20039;-44
2022/04/07 07:25:16;;;;;;;13.77;5.53;;;;;;;23.81;33.87;99606.81;4934598;29;20441;-43
2022/04/07 07:27:45;;;;;;;17.00;5.35;;;;;;;23.79;33.64;99609.44;4933912;28;20421;-44
2022/04/07 07:30:15;;;;;;;13.48;5.75;;;;;;;23.81;33.50;99615.56;4935090;29;20051;-44
2022/04/07 07:32:45;;;;;;;14.18;5.68;;;;;;;23.83;33.77;99600.66;4916968;29;20053;-48
2022/04/07 07:35:13;;;;;;;12.85;4.55;;;;;;;23.82;33.75;99600.69;4917268;29;20094;-50
2022/04/07 07:37:52;;;;;;;12.70;5.30;;;;;;;23.87;33.31;99622.50;4932568;29;20039;-46
2022/04/07 07:40:23;;;;;;;11.82;4.38;;;;;;;23.85;33.53;99607.66;4933601;29;20472;-45
2022/04/07 07:42:53;;;;;;;15.02;5.35;;;;;;;23.83;33.98;99619.00;4934288;29;20057;-45
2022/04/07 07:45:21;;;;;;;12.68;5.20;;;;;;;23.82;33.89;99617.28;4933395;29;20040;-45
2022/04/07 07:47:48;;;;;;;11.45;4.38;;;;;;;23.82;33.97;99622.53;4915864;29;20031;-45
2022/04/07 07:50:17;;;;;;;9.68;4.07;;;;;;;23.81;33.88;99620.78;4935642;29;20034;-47
2022/04/07 07:52:46;;;;;;;11.32;4.07;;;;;;;23.85;33.99;99628.59;4935794;29;20110;-50
2022/04/07 07:55:14;;;;;;;13.23;4.85;;;;;;;23.83;33.78;99632.09;4936094;29;20059;-45
2022/04/07 07:57:43;;;;;;;13.75;4.90;;;;;;;23.85;33.88;99629.47;4936910;29;20111;-48
2022/04/07 08:00:16;;;;;;;11.48;4.45;;;;;;;23.87;34.03;99632.06;4936477;29;20103;-48
2022/04/07 08:02:45;;;;;;;13.50;4.55;;;;;;;23.90;33.88;99647.78;4936685;29;20024;-48
2022/04/07 08:05:14;;;;;;;11.20;4.25;;;;;;;23.90;33.60;99642.53;4936492;29;20027;-44
2022/04/07 08:07:43;;;;;;;12.93;4.65;;;;;;;23.87;33.87;99650.41;4936351;29;20091;-45
2022/04/07 08:10:12;;;;;;;9.00;3.83;;;;;;;23.87;34.33;99648.69;4936269;29;20406;-44
2022/04/07 08:12:41;;;;;;;13.70;4.47;;;;;;;23.85;33.93;99649.53;4936249;29;20079;-44
2022/04/07 08:15:10;;;;;;;12.18;4.35;;;;;;;23.89;34.01;99661.75;4936184;29;20477;-44
2022/04/07 08:17:39;;;;;;;9.82;4.28;;;;;;;23.93;34.09;99658.22;4919507;29;20040;-44
2022/04/07 08:20:08;;;;;;;10.05;3.35;;;;;;;23.93;33.83;99663.47;4936302;29;20036;-47
2022/04/07 08:22:37;;;;;;;14.30;4.82;;;;;;;23.92;33.93;99666.97;4935451;29;20051;-44
2022/04/07 08:25:06;;;;;;;9.60;3.88;;;;;;;23.97;33.97;99660.00;4918810;29;20426;-52
2022/04/07 08:27:34;;;;;;;14.23;4.55;;;;;;;23.93;33.83;99669.56;4935973;29;20036;-44
2022/04/07 08:30:03;;;;;;;10.25;3.90;;;;;;;23.96;33.52;99676.56;4935456;29;20106;-45
2022/04/07 08:32:33;;;;;;;11.30;4.05;;;;;;;23.94;33.54;99688.78;4935643;29;20035;-46
2022/04/07 08:35:02;;;;;;;10.35;4.32;;;;;;;23.95;33.89;99696.63;4936170;29;20042;-45
2022/04/07 08:37:31;;;;;;;9.93;3.47;;;;;;;24.00;33.59;99687.91;4936428;29;20155;-49
2022/04/07 08:40:05;;;;;;;13.15;4.07;;;;;;;23.97;33.83;99707.13;4935919;29;20115;-45
2022/04/07 08:42:35;;;;;;;10.45;3.95;;;;;;;23.99;33.77;99702.75;4936456;29;20035;-53
2022/04/07 08:45:04;;;;;;;9.38;3.58;;;;;;;23.97;33.49;99701.91;4936198;29;20027;-47
2022/04/07 08:47:34;;;;;;;6.40;2.83;;;;;;;24.03;33.76;99711.47;4936067;29;20042;-44
2022/04/07 08:50:05;;;;;;;7.90;3.20;;;;;;;24.02;33.49;99715.81;4935908;29;20478;-45
2022/04/07 08:52:35;;;;;;;9.73;3.30;;;;;;;24.07;33.53;99716.66;4935880;29;20035;-46
2022/04/07 08:55:05;;;;;;;8.63;3.67;;;;;;;24.04;33.68;99726.31;4935979;29;20118;-48
2022/04/07 08:57:34;;;;;;;7.50;2.67;;;;;;;24.08;33.27;99720.13;4935481;29;20445;-45
2022/04/07 09:00:04;;;;;;;8.35;2.75;;;;;;;24.08;33.68;99723.63;4919040;29;20087;-47
2022/04/07 09:02:32;;;;;;;8.65;3.58;;;;;;;24.07;33.60;99724.53;4935880;29;20512;-44
2022/04/07 09:05:01;;;;;;;10.32;3.15;;;;;;;24.11;33.72;99736.72;4903642;29;20036;-44
2022/04/07 09:07:34;;;;;;;6.80;2.58;;;;;;;24.11;33.79;99743.69;4935905;29;20028;-44
2022/04/07 09:10:04;;;;;;;10.50;2.95;;;;;;;24.08;33.58;99749.84;4935842;29;20031;-51
2022/04/07 09:12:34;;;;;;;8.38;2.42;;;;;;;24.04;33.56;99749.88;4935076;29;20124;-47
2022/04/07 09:15:02;;;;;;;7.47;2.25;;;;;;;24.12;33.53;99748.06;4935752;29;20122;-48
2022/04/07 09:17:32;;;;;;;4.05;1.85;;;;;;;24.08;33.72;99756.81;4935989;29;20034;-47
2022/04/07 09:20:01;;;;;;;5.65;2.20;;;;;;;24.12;33.63;99759.44;4919073;29;20027;-44
2022/04/07 09:22:31;;;;;;;3.30;1.70;;;;;;;24.12;33.53;99772.53;4935428;29;20389;-46
2022/04/07 09:25:06;;;;;;;5.47;1.95;;;;;;;24.17;33.41;99768.97;4935638;29;20094;-47
2022/04/07 09:27:35;;;;;;;4.90;1.50;;;;;;;24.16;33.54;99770.75;4935677;29;20040;-48
2022/04/07 09:30:08;;;;;;;4.68;2.03;;;;;;;24.14;33.58;99761.16;4902832;29;20115;-46
2022/04/07 09:32:43;;;;;;;4.97;1.70;;;;;;;24.20;33.60;99780.34;4935307;29;20043;-45
2022/04/07 09:35:12;;;;;;;4.57;1.60;;;;;;;24.18;33.54;99778.59;4935770;29;20402;-49
2022/04/07 09:37:42;;;;;;;4.18;1.60;;;;;;;24.19;33.55;99788.19;4935610;29;20431;-45
2022/04/07 09:40:14;;;;;;;4.43;1.80;;;;;;;24.21;33.64;99789.94;4935968;29;20072;-48
2022/04/07 09:42:43;;;;;;;4.43;1.50;;;;;;;24.22;33.55;99783.81;4918916;29;20027;-48
2022/04/07 09:45:14;;;;;;;4.25;1.50;;;;;;;24.24;33.94;99799.53;4935476;29;20489;-47
2022/04/07 09:47:44;;;;;;;4.32;1.67;;;;;;;24.28;33.66;99796.88;4935784;29;20036;-46
2022/04/07 09:50:33;;;;;;;4.32;1.40;;;;;;;24.35;33.45;99807.31;4918409;29;20023;-52
2022/04/07 09:53:03;;;;;;;16.65;4.50;;;;;;;24.31;33.38;99803.84;4921862;29;20023;-48
2022/04/07 09:55:42;;;;;;;30.40;8.65;;;;;;;24.36;33.51;99804.66;4938665;29;20190;-46
2022/04/07 09:58:12;;;;;;;41.22;11.40;;;;;;;24.37;33.52;99795.94;4938318;29;20035;-49
2022/04/07 10:00:41;;;;;;;49.05;13.90;;;;;;;24.32;33.55;99816.06;4938662;29;20125;-46
2022/04/07 10:03:10;;;;;;;45.75;14.27;;;;;;;24.38;33.65;99817.78;4938710;29;20113;-45
2022/04/07 10:05:38;;;;;;;52.55;13.75;;;;;;;24.35;33.76;99821.28;4906181;29;20024;-45
2022/04/07 10:08:08;;;;;;;58.97;14.60;;;;;;;24.34;33.59;99830.00;4939068;29;20075;-44
2022/04/07 10:10:37;;;;;;;50.42;13.73;;;;;;;24.36;33.97;99833.50;4921796;29;20035;-47
2022/04/07 10:13:06;;;;;;;43.17;14.82;;;;;;;24.40;33.59;99837.00;4938509;29;20055;-44
2022/04/07 10:15:36;;;;;;;49.47;12.85;;;;;;;24.41;33.70;99836.09;4938262;29;20035;-44
2022/04/07 10:18:09;;;;;;;42.53;11.77;;;;;;;24.43;33.42;99843.06;4938242;29;20035;-43
2022/04/07 10:20:43;;;;;;;41.28;10.60;;;;;;;24.39;33.91;99841.34;4938619;29;20032;-46
2022/04/07 10:23:49;;;;;;;37.75;10.75;;;;;;;24.49;33.44;99857.03;4938080;29;20059;-44
2022/04/07 10:26:18;;;;;;;32.22;10.02;;;;;;;24.43;34.08;99856.19;4931449;29;20036;-44
2022/04/07 10:28:55;;;;;;;34.08;10.65;;;;;;;24.45;33.74;99858.78;4938456;29;20431;-46
2022/04/07 10:31:25;;;;;;;26.75;9.70;;;;;;;24.48;33.58;99857.91;4923852;29;20498;-48
2022/04/07 10:33:53;;;;;;;31.92;9.75;;;;;;;24.50;33.57;99859.63;4918845;29;20043;-43
2022/04/07 10:36:24;;;;;;;34.60;9.43;;;;;;;24.53;33.55;99858.72;4902449;29;20080;-45
2022/04/07 10:38:54;;;;;;;26.83;9.07;;;;;;;24.57;33.77;99850.81;4919223;29;20028;-43
2022/04/07 10:41:41;;;;;;;26.95;8.48;;;;;;;24.62;33.45;99861.31;4918642;29;20552;-44
2022/04/07 10:44:29;;;;;;;20.90;7.10;;;;;;;24.61;33.57;99848.19;4919034;29;20094;-44
2022/04/07 10:47:08;;;;;;;21.60;6.75;;;;;;;24.64;33.51;99859.56;4918800;29;20024;-47
2022/04/07 10:49:37;;;;;;;20.67;6.30;;;;;;;24.62;33.98;99861.31;4901949;29;20035;-44
2022/04/07 10:52:07;;;;;;;22.48;6.20;;;;;;;24.62;34.11;99861.31;4902352;29;20043;-49
2022/04/07 10:54:35;;;;;;;18.42;5.95;;;;;;;24.64;33.73;99870.03;4918722;29;20044;-46
2022/04/07 10:57:07;;;;;;;24.67;7.38;;;;;;;24.66;34.08;99864.78;4902135;29;20076;-52
2022/04/07 10:59:35;;;;;;;18.65;6.82;;;;;;;24.68;34.02;99868.25;4918680;29;20133;-49
2022/04/07 11:02:05;;;;;;;18.40;5.40;;;;;;;24.68;33.63;99876.97;4918396;29;20079;-45
2022/04/07 11:05:03;;;;;;;18.88;4.85;;;;;;;24.75;33.58;99879.59;4918504;29;20028;-53
2022/04/07 11:07:51;;;;;;;11.23;4.35;;;;;;;24.77;33.66;99873.44;4918400;29;20043;-44
2022/04/07 11:10:45;;;;;;;10.75;4.22;;;;;;;24.75;33.27;99879.59;4918197;29;20111;-44
2022/04/07 11:13:14;;;;;;;11.20;4.15;;;;;;;24.76;33.38;99894.47;4918225;29;20028;-46
2022/04/07 11:16:01;;;;;;;12.75;4.28;;;;;;;24.78;33.38;99882.22;4901321;29;20036;-44
2022/04/07 11:18:39;;;;;;;11.02;3.60;;;;;;;24.76;33.66;99895.31;4918111;29;20028;-47
2022/04/07 11:21:09;;;;;;;12.45;4.03;;;;;;;24.76;33.47;99891.84;4918228;29;20407;-47
2022/04/07 11:23:42;;;;;;;11.85;3.80;;;;;;;24.78;33.19;99913.69;4918108;29;20096;-49
2022/04/07 11:26:14;;;;;;;10.15;3.40;;;;;;;24.78;33.52;99922.41;4917996;29;20037;-49
2022/04/07 11:29:07;;;;;;;10.40;3.30;;;;;;;24.83;33.22;99925.00;4901561;29;20088;-44
2022/04/07 11:31:48;;;;;;;8.18;3.67;;;;;;;24.84;33.45;99927.63;4918186;29;20044;-45
2022/04/07 11:34:39;;;;;;;9.25;2.65;;;;;;;24.86;33.12;99927.59;4901718;29;20032;-46
2022/04/07 11:37:07;;;;;;;15.05;3.35;;;;;;;24.85;33.55;99931.09;4912926;29;20042;-48
2022/04/07 11:39:39;;;;;;;7.85;2.63;;;;;;;24.80;33.42;99938.16;4917904;29;20031;-46
2022/04/07 11:42:08;;;;;;;9.00;3.13;;;;;;;24.83;33.18;99939.00;4917696;29;20055;-49